San Carlos, Arizona
Current Conditions -  °F | °C
As of 4:51 PM on Wednesday 28 Jan 2015 (Local Time) from KSAD Reporting Station
Clear Clear  
Wind Chill: 72°   Ceiling: Unl
Heat Index: 72°   Visibility: 10mi
Dew Point: 33°   Wind: 5mph
Humidity: 24%   Direction: 320°NW
Pressure: 30.08"   Gusts: NA
Location:  33.35°N, 110.45°W
Report Text: KSAD 282351Z AUTO 32004KT 10SM CLR 22/01 A3008 RMK AO2 SLP161 T02220006 10233 20156 55005
Loading
Personal Weather Stations






























Interactive Weather Map New forecast layout! Learn more

10-Day Weather Forecast

Advertisements
Track Severe Weather on mobile